Current Weather

Biggin Hill

Biggin Hill, United Kingdom (EGKB)

Report from: Sunday, September 25, 2022 9:20 PM BST
Current time: Monday, September 26, 2022 4:26 AM BST

Nearby weather
Weather history
Weather forecast

Temperature10.0°C (50.0°F)
Wind chill8.2°C (46.7°F)
Dew point5.0°C (41.0°F)
Winds 7 kts (3.6 m/s, 8.1 mph) Southwest (220°)
Clouds Sky clear
Altimeter29.94 in.Hg (1014 mB)
Relative humidity71 %
Density altitude-496 ft. (-151 m)
Remarks Ceiling and visibility OK
Flight conditions Visual Meteorological Conditions
Raw dataEGKB 252020Z 22007KT CAVOK 10/05 Q1014
An error has occurred. This application may no longer respond until reloaded. Reload 🗙